Time,TemperatureF,DewpointF,PressureIn,WindDirection,WindDirectionDegrees,WindSpeedMPH,WindSpeedGustMPH,Humidity,HourlyPrecipIn,Conditions,Clouds,dailyrainin,SoftwareType,DateUTC
2013-04-10 00:03:00,59.0,-99.9,29.95,South,170,10.0,13.0,-999,-99.99,,,-99.99,,2013-04-10 04:03:00,
2013-04-10 00:13:00,58.0,-99.9,29.94,South,171,9.0,13.0,-999,-99.99,,,-99.99,,2013-04-10 04:13:00,
2013-04-10 00:23:00,58.0,-99.9,29.94,South,173,9.0,12.0,-999,-99.99,,,-99.99,,2013-04-10 04:23:00,
2013-04-10 00:33:00,57.0,-99.9,29.93,SSE,166,9.0,13.0,-999,-99.99,,,-99.99,,2013-04-10 04:33:00,
2013-04-10 00:43:00,57.0,-99.9,29.93,South,169,8.0,10.0,-999,-99.99,,,-99.99,,2013-04-10 04:43:00,
2013-04-10 00:53:00,57.0,-99.9,29.93,South,171,8.0,11.0,-999,-99.99,,,-99.99,,2013-04-10 04:53:00,
2013-04-10 01:03:00,58.0,-99.9,29.93,South,181,7.0,11.0,-999,-99.99,,,-99.99,,2013-04-10 05:03:00,
2013-04-10 01:13:00,59.0,-99.9,29.92,South,176,8.0,11.0,-999,-99.99,,,-99.99,,2013-04-10 05:13:00,
2013-04-10 01:23:00,60.0,-99.9,29.93,South,185,7.0,11.0,-999,-99.99,,,-99.99,,2013-04-10 05:23:00,
2013-04-10 01:33:00,61.0,-99.9,29.92,SSW,192,7.0,13.0,-999,-99.99,,,-99.99,,2013-04-10 05:33:00,
2013-04-10 01:43:00,63.0,-99.9,29.92,SSW,203,9.0,14.0,-999,-99.99,,,-99.99,,2013-04-10 05:43:00,
2013-04-10 01:53:00,62.0,-99.9,29.91,SSW,193,7.0,11.0,-999,-99.99,,,-99.99,,2013-04-10 05:53:00,
2013-04-10 02:03:00,62.0,-99.9,29.91,SSW,194,7.0,10.0,-999,-99.99,,,-99.99,,2013-04-10 06:03:00,
2013-04-10 02:12:00,63.0,-99.9,29.91,South,190,8.0,13.0,-999,-99.99,,,-99.99,,2013-04-10 06:12:00,
2013-04-10 02:22:00,64.0,-99.9,29.90,SSW,209,10.0,16.0,-999,-99.99,,,-99.99,,2013-04-10 06:22:00,
2013-04-10 02:32:00,65.0,-99.9,29.90,SW,219,9.0,14.0,-999,-99.99,,,-99.99,,2013-04-10 06:32:00,
2013-04-10 02:43:00,65.0,-99.9,29.89,SW,217,11.0,16.0,-999,-99.99,,,-99.99,,2013-04-10 06:43:00,
2013-04-10 02:52:00,66.0,-99.9,29.89,SW,216,13.0,17.0,-999,-99.99,,,-99.99,,2013-04-10 06:52:00,
2013-04-10 03:02:00,66.0,-99.9,29.88,SW,215,12.0,18.0,-999,-99.99,,,-99.99,,2013-04-10 07:02:00,
2013-04-10 03:12:00,66.0,-99.9,29.88,SW,216,12.0,18.0,-999,-99.99,,,-99.99,,2013-04-10 07:12:00,
2013-04-10 03:23:00,65.0,-99.9,29.87,SW,217,13.0,19.0,-999,-99.99,,,-99.99,,2013-04-10 07:23:00,
2013-04-10 03:33:00,65.0,-99.9,29.87,SW,220,13.0,19.0,-999,-99.99,,,-99.99,,2013-04-10 07:33:00,
2013-04-10 03:43:00,65.0,-99.9,29.87,SW,219,13.0,18.0,-999,-99.99,,,-99.99,,2013-04-10 07:43:00,
2013-04-10 03:52:00,65.0,-99.9,29.87,SW,223,14.0,19.0,-999,-99.99,,,-99.99,,2013-04-10 07:52:00,
2013-04-10 04:02:00,64.0,-99.9,29.87,SW,225,13.0,19.0,-999,-99.99,,,-99.99,,2013-04-10 08:02:00,
2013-04-10 04:12:00,62.0,-99.9,29.87,SW,228,11.0,16.0,-999,-99.99,,,-99.99,,2013-04-10 08:12:00,
2013-04-10 04:22:00,61.0,-99.9,29.88,SW,228,10.0,14.0,-999,-99.99,,,-99.99,,2013-04-10 08:22:00,
2013-04-10 04:32:00,61.0,-99.9,29.88,SW,231,11.0,15.0,-999,-99.99,,,-99.99,,2013-04-10 08:32:00,
2013-04-10 04:43:00,60.0,-99.9,29.88,SW,234,12.0,16.0,-999,-99.99,,,-99.99,,2013-04-10 08:43:00,
2013-04-10 04:52:00,59.0,-99.9,29.88,SW,235,11.0,14.0,-999,-99.99,,,-99.99,,2013-04-10 08:52:00,
2013-04-10 05:02:00,59.0,-99.9,29.88,SW,232,9.0,12.0,-999,-99.99,,,-99.99,,2013-04-10 09:02:00,
2013-04-10 05:12:00,58.0,-99.9,29.88,WSW,239,8.0,11.0,-999,-99.99,,,-99.99,,2013-04-10 09:12:00,
2013-04-10 05:23:00,57.0,-99.9,29.89,WSW,240,8.0,10.0,-999,-99.99,,,-99.99,,2013-04-10 09:23:00,
2013-04-10 05:33:00,56.0,-99.9,29.89,WSW,240,8.0,9.0,-999,-99.99,,,-99.99,,2013-04-10 09:33:00,
2013-04-10 05:43:00,56.0,-99.9,29.90,WSW,254,5.0,6.0,-999,-99.99,,,-99.99,,2013-04-10 09:43:00,
2013-04-10 05:53:00,55.0,-99.9,29.90,WSW,254,7.0,7.0,-999,-99.99,,,-99.99,,2013-04-10 09:53:00,
2013-04-10 06:03:00,55.0,-99.9,29.90,WSW,258,8.0,9.0,-999,-99.99,,,-99.99,,2013-04-10 10:03:00,
2013-04-10 06:13:00,55.0,-99.9,29.90,West,260,9.0,10.0,-999,-99.99,,,-99.99,,2013-04-10 10:13:00,
2013-04-10 06:23:00,55.0,-99.9,29.90,West,260,10.0,11.0,-999,-99.99,,,-99.99,,2013-04-10 10:23:00,
2013-04-10 06:33:00,55.0,-99.9,29.90,WSW,257,10.0,11.0,-999,-99.99,,,-99.99,,2013-04-10 10:33:00,
2013-04-10 06:43:00,56.0,-99.9,29.91,WSW,258,11.0,14.0,-999,-99.99,,,-99.99,,2013-04-10 10:43:00,
2013-04-10 06:53:00,55.0,-99.9,29.91,West,262,10.0,11.0,-999,-99.99,,,-99.99,,2013-04-10 10:53:00,
2013-04-10 07:03:00,57.0,-99.9,29.91,West,262,8.0,11.0,-999,-99.99,,,-99.99,,2013-04-10 11:03:00,
2013-04-10 07:12:00,56.0,-99.9,29.92,West,264,10.0,12.0,-999,-99.99,,,-99.99,,2013-04-10 11:12:00,
2013-04-10 07:22:00,56.0,-99.9,29.92,West,265,11.0,11.0,-999,-99.99,,,-99.99,,2013-04-10 11:22:00,
2013-04-10 07:32:00,56.0,-99.9,29.92,West,261,10.0,12.0,-999,-99.99,,,-99.99,,2013-04-10 11:32:00,
2013-04-10 07:42:00,57.0,-99.9,29.92,WSW,246,11.0,13.0,-999,-99.99,,,-99.99,,2013-04-10 11:42:00,
2013-04-10 07:53:00,56.0,-99.9,29.92,WSW,242,11.0,12.0,-999,-99.99,,,-99.99,,2013-04-10 11:53:00,
2013-04-10 08:03:00,57.0,-99.9,29.93,WSW,249,12.0,14.0,-999,-99.99,,,-99.99,,2013-04-10 12:03:00,
2013-04-10 08:12:00,56.0,-99.9,29.93,WSW,241,9.0,12.0,-999,-99.99,,,-99.99,,2013-04-10 12:12:00,
2013-04-10 08:23:00,57.0,-99.9,29.93,WSW,249,10.0,12.0,-999,-99.99,,,-99.99,,2013-04-10 12:23:00,
2013-04-10 08:33:00,57.0,-99.9,29.93,WSW,255,10.0,11.0,-999,-99.99,,,-99.99,,2013-04-10 12:33:00,
2013-04-10 08:43:00,57.0,-99.9,29.93,West,263,9.0,10.0,-999,-99.99,,,-99.99,,2013-04-10 12:43:00,
2013-04-10 08:52:00,58.0,-99.9,29.93,WSW,255,9.0,10.0,-999,-99.99,,,-99.99,,2013-04-10 12:52:00,
2013-04-10 09:02:00,58.0,-99.9,29.93,WSW,258,9.0,10.0,-999,-99.99,,,-99.99,,2013-04-10 13:02:00,
2013-04-10 09:12:00,56.0,-99.9,29.94,West,270,11.0,12.0,-999,-99.99,,,-99.99,,2013-04-10 13:12:00,
2013-04-10 09:23:00,56.0,-99.9,29.94,West,265,9.0,10.0,-999,-99.99,,,-99.99,,2013-04-10 13:23:00,
2013-04-10 09:33:00,57.0,-99.9,29.94,West,265,8.0,9.0,-999,-99.99,,,-99.99,,2013-04-10 13:33:00,
2013-04-10 09:43:00,57.0,-99.9,29.94,West,268,9.0,11.0,-999,-99.99,,,-99.99,,2013-04-10 13:43:00,
2013-04-10 09:53:00,57.0,-99.9,29.94,West,264,7.0,8.0,-999,-99.99,,,-99.99,,2013-04-10 13:53:00,
2013-04-10 10:02:00,58.0,-99.9,29.94,NW,305,5.0,12.0,-999,-99.99,,,-99.99,,2013-04-10 14:02:00,
2013-04-10 10:13:00,58.0,-99.9,29.94,West,268,7.0,9.0,-999,-99.99,,,-99.99,,2013-04-10 14:13:00,
2013-04-10 10:22:00,59.0,-99.9,29.94,West,264,6.0,7.0,-999,-99.99,,,-99.99,,2013-04-10 14:22:00,
2013-04-10 10:33:00,58.0,-99.9,29.94,West,270,6.0,7.0,-999,-99.99,,,-99.99,,2013-04-10 14:33:00,
2013-04-10 10:42:00,59.0,-99.9,29.93,West,271,6.0,8.0,-999,-99.99,,,-99.99,,2013-04-10 14:42:00,
2013-04-10 10:52:00,61.0,-99.9,29.93,West,259,6.0,8.0,-999,-99.99,,,-99.99,,2013-04-10 14:52:00,
2013-04-10 11:03:00,63.0,-99.9,29.93,WSW,258,6.0,7.0,-999,-99.99,,,-99.99,,2013-04-10 15:03:00,
2013-04-10 11:12:00,64.0,-99.9,29.93,West,264,7.0,11.0,-999,-99.99,,,-99.99,,2013-04-10 15:12:00,
2013-04-10 11:23:00,62.0,-99.9,29.93,West,263,8.0,9.0,-999,-99.99,,,-99.99,,2013-04-10 15:23:00,
2013-04-10 11:33:00,62.0,-99.9,29.93,West,266,7.0,10.0,-999,-99.99,,,-99.99,,2013-04-10 15:33:00,
2013-04-10 11:43:00,64.0,-99.9,29.93,West,260,7.0,8.0,-999,-99.99,,,-99.99,,2013-04-10 15:43:00,
2013-04-10 11:53:00,67.0,-99.9,29.92,WSW,256,8.0,9.0,-999,-99.99,,,-99.99,,2013-04-10 15:53:00,
2013-04-10 12:03:00,70.0,-99.9,29.92,West,259,8.0,10.0,-999,-99.99,,,-99.99,,2013-04-10 16:03:00,
2013-04-10 12:13:00,69.0,-99.9,29.92,West,262,8.0,8.0,-999,-99.99,,,-99.99,,2013-04-10 16:13:00,
2013-04-10 12:23:00,71.0,-99.9,29.92,West,262,7.0,7.0,-999,-99.99,,,-99.99,,2013-04-10 16:23:00,
2013-04-10 12:34:00,73.0,-99.9,29.92,West,266,7.0,7.0,-999,-99.99,,,-99.99,,2013-04-10 16:34:00,
2013-04-10 12:43:00,75.0,-99.9,29.91,West,261,7.0,7.0,-999,-99.99,,,-99.99,,2013-04-10 16:43:00,
2013-04-10 12:53:00,76.0,-99.9,29.91,WSW,257,7.0,8.0,-999,-99.99,,,-99.99,,2013-04-10 16:53:00,
2013-04-10 13:03:00,75.0,-99.9,29.91,WSW,256,8.0,9.0,-999,-99.99,,,-99.99,,2013-04-10 17:03:00,
2013-04-10 13:13:00,72.0,-99.9,29.91,WSW,243,8.0,10.0,-999,-99.99,,,-99.99,,2013-04-10 17:13:00,
2013-04-10 13:23:00,73.0,-99.9,29.91,WSW,243,7.0,9.0,-999,-99.99,,,-99.99,,2013-04-10 17:23:00,
2013-04-10 13:34:00,74.0,-99.9,29.91,WSW,237,8.0,10.0,-999,-99.99,,,-99.99,,2013-04-10 17:34:00,
2013-04-10 13:43:00,76.0,-99.9,29.91,WSW,237,8.0,10.0,-999,-99.99,,,-99.99,,2013-04-10 17:43:00,
2013-04-10 13:53:00,77.0,-99.9,29.91,WSW,245,6.0,8.0,-999,-99.99,,,-99.99,,2013-04-10 17:53:00,
2013-04-10 14:03:00,77.0,-99.9,29.90,WSW,241,6.0,8.0,-999,-99.99,,,-99.99,,2013-04-10 18:03:00,
2013-04-10 14:12:00,78.0,-99.9,29.90,WSW,246,6.0,8.0,-999,-99.99,,,-99.99,,2013-04-10 18:12:00,
2013-04-10 14:23:00,78.0,-99.9,29.90,SW,235,7.0,8.0,-999,-99.99,,,-99.99,,2013-04-10 18:23:00,
2013-04-10 14:33:00,79.0,-99.9,29.89,WSW,237,6.0,7.0,-999,-99.99,,,-99.99,,2013-04-10 18:33:00,
2013-04-10 14:43:00,78.0,-99.9,29.89,South,185,7.0,8.0,-999,-99.99,,,-99.99,,2013-04-10 18:43:00,
2013-04-10 14:53:00,76.0,-99.9,29.89,South,188,8.0,9.0,-999,-99.99,,,-99.99,,2013-04-10 18:53:00,
2013-04-10 15:03:00,76.0,-99.9,29.89,South,186,7.0,9.0,-999,-99.99,,,-99.99,,2013-04-10 19:03:00,
2013-04-10 15:13:00,78.0,-99.9,29.88,South,182,7.0,9.0,-999,-99.99,,,-99.99,,2013-04-10 19:13:00,
2013-04-10 15:22:00,77.0,-99.9,29.88,South,184,8.0,10.0,-999,-99.99,,,-99.99,,2013-04-10 19:22:00,
2013-04-10 15:33:00,78.0,-99.9,29.88,South,183,6.0,7.0,-999,-99.99,,,-99.99,,2013-04-10 19:33:00,
2013-04-10 15:42:00,77.0,-99.9,29.87,South,183,6.0,8.0,-999,-99.99,,,-99.99,,2013-04-10 19:42:00,
2013-04-10 15:53:00,78.0,-99.9,29.86,South,172,6.0,9.0,-999,-99.99,,,-99.99,,2013-04-10 19:53:00,
2013-04-10 16:03:00,77.0,-99.9,29.86,South,173,7.0,8.0,-999,-99.99,,,-99.99,,2013-04-10 20:03:00,
2013-04-10 16:12:00,76.0,-99.9,29.85,South,184,8.0,10.0,-999,-99.99,,,-99.99,,2013-04-10 20:12:00,
2013-04-10 16:23:00,76.0,-99.9,29.85,SSE,163,8.0,10.0,-999,-99.99,,,-99.99,,2013-04-10 20:23:00,
2013-04-10 16:33:00,76.0,-99.9,29.85,SSE,161,5.0,7.0,-999,-99.99,,,-99.99,,2013-04-10 20:33:00,
2013-04-10 16:43:00,75.0,-99.9,29.85,SSE,164,7.0,9.0,-999,-99.99,,,-99.99,,2013-04-10 20:43:00,
2013-04-10 16:53:00,72.0,-99.9,29.84,SSE,167,11.0,14.0,-999,-99.99,,,-99.99,,2013-04-10 20:53:00,
2013-04-10 17:03:00,72.0,-99.9,29.84,SSE,164,11.0,12.0,-999,-99.99,,,-99.99,,2013-04-10 21:03:00,
2013-04-10 17:13:00,72.0,-99.9,29.84,SSE,164,11.0,12.0,-999,-99.99,,,-99.99,,2013-04-10 21:13:00,
2013-04-10 17:22:00,68.0,-99.9,29.84,South,171,9.0,11.0,-999,-99.99,,,-99.99,,2013-04-10 21:22:00,
2013-04-10 17:33:00,68.0,-99.9,29.84,SSE,162,7.0,9.0,-999,-99.99,,,-99.99,,2013-04-10 21:33:00,
2013-04-10 17:43:00,69.0,-99.9,29.85,South,174,6.0,9.0,-999,-99.99,,,-99.99,,2013-04-10 21:43:00,
2013-04-10 17:53:00,69.0,-99.9,29.85,South,182,7.0,10.0,-999,-99.99,,,-99.99,,2013-04-10 21:53:00,
2013-04-10 18:03:00,70.0,-99.9,29.84,South,178,7.0,9.0,-999,-99.99,,,-99.99,,2013-04-10 22:03:00,
2013-04-10 18:13:00,71.0,-99.9,29.84,South,175,7.0,10.0,-999,-99.99,,,-99.99,,2013-04-10 22:13:00,
2013-04-10 18:23:00,70.0,-99.9,29.83,South,181,6.0,8.0,-999,-99.99,,,-99.99,,2013-04-10 22:23:00,
2013-04-10 18:34:00,69.0,-99.9,29.83,South,175,9.0,10.0,-999,-99.99,,,-99.99,,2013-04-10 22:34:00,
2013-04-10 18:43:00,69.0,-99.9,29.83,South,180,6.0,9.0,-999,-99.99,,,-99.99,,2013-04-10 22:43:00,
2013-04-10 18:53:00,69.0,-99.9,29.82,South,174,7.0,10.0,-999,-99.99,,,-99.99,,2013-04-10 22:53:00,
2013-04-10 19:03:00,68.0,-99.9,29.82,South,170,8.0,11.0,-999,-99.99,,,-99.99,,2013-04-10 23:03:00,
2013-04-10 19:12:00,68.0,-99.9,29.81,SSE,167,12.0,16.0,-999,-99.99,,,-99.99,,2013-04-10 23:12:00,
2013-04-10 19:22:00,69.0,-99.9,29.80,South,174,12.0,16.0,-999,-99.99,,,-99.99,,2013-04-10 23:22:00,
2013-04-10 19:33:00,69.0,-99.9,29.80,South,178,11.0,17.0,-999,-99.99,,,-99.99,,2013-04-10 23:33:00,
2013-04-10 19:43:00,70.0,-99.9,29.80,South,183,14.0,20.0,-999,-99.99,,,-99.99,,2013-04-10 23:43:00,
2013-04-10 19:53:00,73.0,-99.9,29.78,SSW,196,15.0,22.0,-999,-99.99,,,-99.99,,2013-04-10 23:53:00,
2013-04-10 20:02:00,73.0,-99.9,29.79,SSW,195,17.0,21.0,-999,-99.99,,,-99.99,,2013-04-11 00:02:00,
2013-04-10 20:13:00,73.0,-99.9,29.79,SSW,196,14.0,19.0,-999,-99.99,,,-99.99,,2013-04-11 00:13:00,
2013-04-10 20:23:00,74.0,-99.9,29.79,SSW,195,16.0,23.0,-999,-99.99,,,-99.99,,2013-04-11 00:23:00,
2013-04-10 20:32:00,74.0,-99.9,29.79,SSW,198,15.0,21.0,-999,-99.99,,,-99.99,,2013-04-11 00:32:00,
2013-04-10 20:43:00,73.0,-99.9,29.79,SSW,200,14.0,21.0,-999,-99.99,,,-99.99,,2013-04-11 00:43:00,
2013-04-10 20:53:00,72.0,-99.9,29.78,SSW,193,16.0,23.0,-999,-99.99,,,-99.99,,2013-04-11 00:53:00,
2013-04-10 21:02:00,71.0,-99.9,29.78,South,189,14.0,22.0,-999,-99.99,,,-99.99,,2013-04-11 01:02:00,
2013-04-10 21:13:00,70.0,-99.9,29.79,South,187,12.0,18.0,-999,-99.99,,,-99.99,,2013-04-11 01:13:00,
2013-04-10 21:22:00,69.0,-99.9,29.79,South,186,11.0,15.0,-999,-99.99,,,-99.99,,2013-04-11 01:22:00,
2013-04-10 21:33:00,67.0,-99.9,29.80,South,186,8.0,12.0,-999,-99.99,,,-99.99,,2013-04-11 01:33:00,
2013-04-10 21:42:00,67.0,-99.9,29.80,South,185,9.0,15.0,-999,-99.99,,,-99.99,,2013-04-11 01:42:00,
2013-04-10 21:52:00,66.0,-99.9,29.80,South,182,10.0,13.0,-999,-99.99,,,-99.99,,2013-04-11 01:52:00,
2013-04-10 22:03:00,65.0,-99.9,29.81,South,181,9.0,13.0,-999,-99.99,,,-99.99,,2013-04-11 02:03:00,
2013-04-10 22:13:00,65.0,-99.9,29.80,South,184,10.0,14.0,-999,-99.99,,,-99.99,,2013-04-11 02:13:00,
2013-04-10 22:22:00,65.0,-99.9,29.80,South,189,9.0,14.0,-999,-99.99,,,-99.99,,2013-04-11 02:22:00,
2013-04-10 22:32:00,66.0,-99.9,29.80,South,191,11.0,17.0,-999,-99.99,,,-99.99,,2013-04-11 02:32:00,
2013-04-10 22:42:00,66.0,-99.9,29.80,South,191,11.0,17.0,-999,-99.99,,,-99.99,,2013-04-11 02:42:00,
2013-04-10 22:53:00,64.0,-99.9,29.80,South,184,7.0,11.0,-999,-99.99,,,-99.99,,2013-04-11 02:53:00,
2013-04-10 23:02:00,64.0,-99.9,29.81,South,185,7.0,11.0,-999,-99.99,,,-99.99,,2013-04-11 03:02:00,
2013-04-10 23:12:00,65.0,-99.9,29.80,South,189,7.0,11.0,-999,-99.99,,,-99.99,,2013-04-11 03:12:00,
2013-04-10 23:22:00,63.0,-99.9,29.80,South,176,8.0,10.0,-999,-99.99,,,-99.99,,2013-04-11 03:22:00,
2013-04-10 23:33:00,63.0,-99.9,29.80,South,177,6.0,9.0,-999,-99.99,,,-99.99,,2013-04-11 03:33:00,
2013-04-10 23:43:00,62.0,-99.9,29.81,SSE,167,7.0,10.0,-999,-99.99,,,-99.99,,2013-04-11 03:43:00,
2013-04-10 23:54:00,62.0,-99.9,29.82,SSE,152,5.0,7.0,-999,-99.99,,,-99.99,,2013-04-11 03:54:00,